Time;durP1;ratioP1;P1;durP2;ratioP2;P2;SDS_P1;SDS_P2;PMS_P1;PMS_P2;Temp;Humidity;BMP_temperature;BMP_pressure;BME280_temperature;BME280_humidity;BME280_pressure;Samples;Min_cycle;Max_cycle;Signal;HPM_P1;HPM_P2
2021/09/03 00:01:06;;;;;;;41.25;16.38;;;;;;;10.01;94.53;102660.47;4995175;28;20081;-75
2021/09/03 00:03:33;;;;;;;41.63;17.23;;;;;;;10.00;94.73;102665.91;4995954;28;20482;-75
2021/09/03 00:05:59;;;;;;;30.88;13.65;;;;;;;9.98;94.82;102654.50;4995850;28;20091;-75
2021/09/03 00:08:25;;;;;;;51.35;18.13;;;;;;;9.98;94.90;102650.03;4995233;28;20042;-75
2021/09/03 00:10:51;;;;;;;42.95;16.08;;;;;;;9.97;95.07;102647.47;4996025;28;20475;-74
2021/09/03 00:13:17;;;;;;;41.03;16.13;;;;;;;9.96;95.00;102643.97;4995030;28;20038;-75
2021/09/03 00:15:42;;;;;;;46.35;17.38;;;;;;;9.95;95.17;102646.72;4995518;28;20039;-75
2021/09/03 00:18:08;;;;;;;39.78;17.25;;;;;;;9.95;95.18;102642.25;4994663;28;20387;-75
2021/09/03 00:20:33;;;;;;;39.42;15.07;;;;;;;9.91;95.06;102640.69;4995455;28;20081;-75
2021/09/03 00:22:59;;;;;;;53.85;18.75;;;;;;;9.92;94.90;102641.56;4995671;28;20066;-74
2021/09/03 00:25:24;;;;;;;51.75;18.02;;;;;;;9.95;95.35;102639.56;4994766;28;20073;-75
2021/09/03 00:27:49;;;;;;;41.65;17.90;;;;;;;9.96;95.57;102637.78;4995470;28;20458;-75
2021/09/03 00:30:15;;;;;;;46.13;18.05;;;;;;;9.97;95.55;102635.03;4994772;28;20084;-75
2021/09/03 00:32:40;;;;;;;51.38;17.98;;;;;;;9.95;95.70;102636.91;4977940;28;20039;-73
2021/09/03 00:35:08;;;;;;;44.13;15.68;;;;;;;9.93;95.60;102628.19;4995264;28;20117;-74
2021/09/03 00:37:33;;;;;;;44.72;17.80;;;;;;;9.95;95.67;102628.09;4995410;28;20038;-74
2021/09/03 00:39:59;;;;;;;47.45;19.23;;;;;;;9.93;95.54;102632.63;4995045;28;20121;-75
2021/09/03 00:42:25;;;;;;;49.30;17.83;;;;;;;9.92;95.47;102629.13;4994602;28;20448;-74
2021/09/03 00:44:50;;;;;;;48.13;19.42;;;;;;;9.94;95.42;102623.72;4995156;28;20062;-75
2021/09/03 00:47:16;;;;;;;48.63;18.80;;;;;;;9.98;95.90;102623.44;4994288;28;20486;-73
2021/09/03 00:49:41;;;;;;;47.28;17.63;;;;;;;9.97;95.97;102627.06;4995565;28;20030;-75
2021/09/03 00:52:08;;;;;;;38.25;16.40;;;;;;;9.96;95.54;102630.66;4997251;28;20439;-76
2021/09/03 00:54:34;;;;;;;42.00;18.17;;;;;;;9.93;95.52;102616.69;4994937;28;20501;-76
2021/09/03 00:57:00;;;;;;;49.10;18.60;;;;;;;9.94;95.44;102613.97;4997125;28;20090;-75
2021/09/03 00:59:25;;;;;;;39.65;17.58;;;;;;;9.95;95.62;102615.66;4995172;28;20030;-75
2021/09/03 01:01:51;;;;;;;47.20;17.33;;;;;;;9.96;95.79;102614.72;4996947;28;20059;-74
2021/09/03 01:04:16;;;;;;;58.72;20.67;;;;;;;9.96;95.65;102611.22;4998072;28;20041;-75
2021/09/03 01:06:41;;;;;;;52.58;19.38;;;;;;;10.01;96.03;102609.97;4998152;28;20364;-75
2021/09/03 01:09:07;;;;;;;62.55;20.83;;;;;;;10.03;96.10;102607.19;4996405;28;20508;-74
2021/09/03 01:11:32;;;;;;;53.28;19.70;;;;;;;10.03;96.26;102608.09;4993988;28;20038;-75
2021/09/03 01:13:58;;;;;;;57.47;20.60;;;;;;;10.03;96.42;102605.41;4994784;28;20109;-75
2021/09/03 01:16:23;;;;;;;83.70;24.90;;;;;;;10.19;96.64;102600.00;4993663;28;20383;-75
2021/09/03 01:18:49;;;;;;;70.78;23.23;;;;;;;10.34;97.20;102597.41;4994587;28;20030;-75
2021/09/03 01:21:15;;;;;;;73.95;25.45;;;;;;;10.40;97.37;102600.56;4993769;28;20042;-75
2021/09/03 01:23:40;;;;;;;48.35;19.75;;;;;;;10.41;97.48;102599.56;4994430;28;20069;-75
2021/09/03 01:26:06;;;;;;;71.85;22.67;;;;;;;10.40;97.42;102591.69;4994016;28;20062;-75
2021/09/03 01:28:32;;;;;;;58.47;21.60;;;;;;;10.40;97.52;102587.25;4993689;28;20117;-75
2021/09/03 01:30:58;;;;;;;61.83;22.67;;;;;;;10.39;97.42;102590.00;4994323;28;20058;-75
2021/09/03 01:33:24;;;;;;;53.88;19.90;;;;;;;10.33;97.44;102585.91;4993038;28;20113;-75
2021/09/03 01:35:49;;;;;;;45.30;18.98;;;;;;;10.30;97.34;102590.50;4994147;28;20466;-75
2021/09/03 01:38:15;;;;;;;52.00;19.27;;;;;;;10.24;97.21;102584.63;4994206;28;20038;-74
2021/09/03 01:40:40;;;;;;;58.95;19.63;;;;;;;10.24;97.21;102583.78;4993813;28;20027;-75
2021/09/03 01:43:06;;;;;;;53.15;19.67;;;;;;;10.20;97.13;102579.59;4994060;28;20498;-75
2021/09/03 01:45:31;;;;;;;68.38;22.75;;;;;;;10.24;97.18;102581.97;4993654;28;20092;-75
2021/09/03 01:47:57;;;;;;;61.92;20.33;;;;;;;10.22;97.28;102572.38;4994155;28;20173;-75
2021/09/03 01:50:22;;;;;;;64.38;21.60;;;;;;;10.20;97.06;102569.81;4993321;28;20428;-75
2021/09/03 01:52:48;;;;;;;71.13;21.23;;;;;;;10.18;97.03;102568.19;4993856;28;20463;-75
2021/09/03 01:55:13;;;;;;;48.83;18.83;;;;;;;10.16;97.06;102572.75;4993492;28;20038;-75
2021/09/03 01:57:38;;;;;;;52.92;20.35;;;;;;;10.10;97.01;102552.69;4993147;28;20034;-75
2021/09/03 02:00:05;;;;;;;47.03;18.95;;;;;;;10.07;97.04;102566.19;4993435;28;20104;-75
2021/09/03 02:02:30;;;;;;;47.63;19.08;;;;;;;10.02;97.00;102558.50;4992366;28;20124;-75
2021/09/03 02:04:56;;;;;;;74.07;23.02;;;;;;;10.00;97.02;102557.75;4992848;28;20451;-75
2021/09/03 02:07:21;;;;;;;61.95;20.92;;;;;;;9.97;97.21;102557.06;4992163;28;20034;-75
2021/09/03 02:09:47;;;;;;;66.85;23.13;;;;;;;9.96;97.08;102560.69;4992784;28;20034;-75
2021/09/03 02:12:12;;;;;;;73.47;24.33;;;;;;;9.94;97.10;102560.78;4992559;28;20494;-75
2021/09/03 02:14:40;;;;;;;62.70;21.92;;;;;;;9.94;97.43;102549.25;4992083;28;20479;-75
2021/09/03 02:17:06;;;;;;;45.95;17.75;;;;;;;9.88;97.08;102556.69;4992709;28;20474;-75
2021/09/03 02:19:31;;;;;;;57.17;21.05;;;;;;;9.89;97.24;102553.06;4992049;28;20030;-75
2021/09/03 02:21:57;;;;;;;67.28;21.33;;;;;;;9.88;97.10;102551.38;4992263;28;20036;-75
2021/09/03 02:24:22;;;;;;;67.07;21.50;;;;;;;9.88;97.20;102550.47;4992304;28;20030;-75
2021/09/03 02:26:47;;;;;;;59.42;20.95;;;;;;;9.84;97.18;102548.97;4992584;28;20076;-75
2021/09/03 02:29:13;;;;;;;55.80;20.38;;;;;;;9.85;97.34;102550.66;4992992;28;20383;-75
2021/09/03 02:31:38;;;;;;;60.05;21.42;;;;;;;9.85;97.37;102548.00;4974246;28;20069;-75
2021/09/03 02:34:04;;;;;;;58.83;20.98;;;;;;;9.82;97.36;102543.75;4992476;28;20034;-75
2021/09/03 02:36:29;;;;;;;73.68;24.75;;;;;;;9.83;97.25;102542.78;4991859;28;20034;-76
2021/09/03 02:38:54;;;;;;;68.95;23.60;;;;;;;9.82;97.42;102546.41;4992497;28;20570;-75
2021/09/03 02:41:20;;;;;;;73.70;23.48;;;;;;;9.87;97.44;102544.31;4992430;28;20042;-75
2021/09/03 02:43:45;;;;;;;72.00;24.13;;;;;;;9.92;97.45;102537.88;4989278;28;20399;-75
2021/09/03 02:46:10;;;;;;;89.55;25.58;;;;;;;10.00;97.70;102532.94;4992202;28;20061;-75
2021/09/03 02:48:36;;;;;;;88.03;26.27;;;;;;;10.10;97.70;102534.06;4991732;28;20394;-75
2021/09/03 02:51:01;;;;;;;88.68;26.20;;;;;;;10.17;97.97;102534.56;4992018;28;20061;-75
2021/09/03 02:53:26;;;;;;;78.63;25.33;;;;;;;10.19;98.39;102527.34;4991473;28;20038;-75
2021/09/03 02:55:52;;;;;;;77.43;24.60;;;;;;;10.18;98.39;102522.97;4992154;28;20058;-75
2021/09/03 02:58:17;;;;;;;75.18;24.65;;;;;;;10.17;98.26;102521.28;4992059;28;20031;-75
2021/09/03 03:00:43;;;;;;;74.35;25.50;;;;;;;10.16;98.24;102517.72;4991557;28;20037;-75
2021/09/03 03:03:08;;;;;;;62.95;22.25;;;;;;;10.14;98.20;102517.00;4955183;28;1091519;-75
2021/09/03 03:05:33;;;;;;;76.43;24.48;;;;;;;10.11;98.14;102517.19;4992385;28;20046;-75
2021/09/03 03:07:59;;;;;;;73.60;24.20;;;;;;;10.08;98.20;102509.41;4993330;28;20045;-75
2021/09/03 03:10:25;;;;;;;82.07;25.58;;;;;;;10.05;98.08;102506.94;4992947;28;20045;-75
2021/09/03 03:12:53;;;;;;;74.57;23.30;;;;;;;10.03;98.17;102508.81;4992367;28;20069;-75
2021/09/03 03:15:19;;;;;;;75.45;25.30;;;;;;;10.06;98.21;102503.28;4992863;28;20042;-75
2021/09/03 03:17:44;;;;;;;79.13;25.85;;;;;;;10.06;98.19;102498.84;4992235;28;20446;-75
2021/09/03 03:20:10;;;;;;;114.45;30.23;;;;;;;10.13;98.47;102498.47;4992843;28;20030;-75
2021/09/03 03:22:36;;;;;;;99.28;27.30;;;;;;;10.15;98.38;102502.75;4992022;28;20093;-75
2021/09/03 03:25:02;;;;;;;78.85;25.23;;;;;;;10.16;98.51;102495.63;4992786;28;20050;-75
2021/09/03 03:27:27;;;;;;;78.18;25.65;;;;;;;10.15;98.58;102493.91;4992976;28;20030;-75
2021/09/03 03:29:53;;;;;;;93.85;27.13;;;;;;;10.15;98.61;102489.44;4992176;28;20057;-75
2021/09/03 03:32:18;;;;;;;83.25;26.48;;;;;;;10.11;98.64;102490.59;4992519;28;20061;-74
2021/09/03 03:34:45;;;;;;;70.72;25.48;;;;;;;10.11;98.60;102500.38;4992136;28;20031;-75
2021/09/03 03:37:10;;;;;;;76.07;25.63;;;;;;;10.09;98.41;102496.94;4992632;28;20045;-74
2021/09/03 03:39:35;;;;;;;86.85;27.92;;;;;;;10.09;98.37;102489.84;4991869;28;20038;-75
2021/09/03 03:42:01;;;;;;;84.45;26.38;;;;;;;10.09;98.70;102492.50;4992350;28;20498;-75
2021/09/03 03:44:26;;;;;;;82.18;26.52;;;;;;;10.06;98.61;102482.91;4992398;28;20049;-74
2021/09/03 03:46:51;;;;;;;76.35;24.77;;;;;;;10.06;98.73;102488.22;4991910;28;20090;-74
2021/09/03 03:49:17;;;;;;;108.90;30.45;;;;;;;10.07;98.60;102481.09;4992895;28;20375;-74
2021/09/03 03:51:42;;;;;;;75.75;25.17;;;;;;;10.07;98.80;102475.75;4974558;28;20398;-75
2021/09/03 03:54:07;;;;;;;90.95;26.42;;;;;;;10.04;98.81;102478.63;4992332;28;20133;-75
2021/09/03 03:56:33;;;;;;;90.20;28.10;;;;;;;10.00;98.91;102477.97;4994736;28;20034;-75
2021/09/03 03:58:58;;;;;;;86.18;25.95;;;;;;;9.97;98.80;102475.50;4995715;28;20038;-74
2021/09/03 04:01:24;;;;;;;91.05;28.17;;;;;;;9.95;98.62;102480.03;4995542;28;20050;-74
2021/09/03 04:03:49;;;;;;;87.97;26.25;;;;;;;9.94;98.69;102477.47;4995281;28;20430;-74
2021/09/03 04:06:15;;;;;;;76.82;24.98;;;;;;;9.93;98.98;102473.09;4996057;28;20038;-74
2021/09/03 04:08:40;;;;;;;83.78;27.45;;;;;;;9.89;98.65;102473.28;4995199;28;20088;-74
2021/09/03 04:11:05;;;;;;;84.07;27.38;;;;;;;9.86;98.78;102467.31;4996067;28;20438;-74
2021/09/03 04:13:31;;;;;;;110.68;30.95;;;;;;;9.88;98.80;102468.06;4995703;28;20061;-74
2021/09/03 04:15:56;;;;;;;103.88;29.15;;;;;;;9.91;98.78;102470.53;4995011;28;20030;-74
2021/09/03 04:18:22;;;;;;;96.97;26.35;;;;;;;9.93;98.83;102470.44;4995662;28;20460;-74
2021/09/03 04:20:47;;;;;;;99.32;28.30;;;;;;;9.94;98.92;102466.84;4995006;28;20108;-74
2021/09/03 04:23:12;;;;;;;109.95;31.15;;;;;;;9.97;99.11;102470.19;4995396;28;20031;-73
2021/09/03 04:25:38;;;;;;;124.00;33.47;;;;;;;9.99;99.02;102470.09;4994986;28;20042;-74
2021/09/03 04:28:04;;;;;;;118.50;32.00;;;;;;;9.99;99.26;102470.09;4995704;28;20034;-74
2021/09/03 04:30:29;;;;;;;105.55;28.67;;;;;;;9.99;99.17;102467.41;4995514;28;20049;-74
2021/09/03 04:32:55;;;;;;;104.65;28.23;;;;;;;9.98;99.25;102468.38;4977247;28;20070;-74
2021/09/03 04:35:20;;;;;;;106.70;28.92;;;;;;;9.97;99.06;102469.31;4995228;28;20383;-75
2021/09/03 04:37:47;;;;;;;102.20;28.40;;;;;;;9.94;99.05;102470.38;4994747;28;20030;-73
2021/09/03 04:40:14;;;;;;;108.82;29.83;;;;;;;9.88;99.19;102463.63;4995243;28;20041;-73
2021/09/03 04:42:40;;;;;;;97.75;28.17;;;;;;;9.86;99.21;102462.00;4994564;28;20031;-74
2021/09/03 04:45:07;;;;;;;118.15;31.50;;;;;;;9.85;99.25;102458.50;4995038;28;20038;-74
2021/09/03 04:47:32;;;;;;;119.63;31.25;;;;;;;9.87;99.31;102458.41;4995049;28;20039;-74
2021/09/03 04:49:58;;;;;;;128.18;32.42;;;;;;;9.84;99.08;102464.75;4994427;28;20037;-74
2021/09/03 04:52:23;;;;;;;107.18;29.63;;;;;;;9.83;99.28;102463.03;4994798;28;20038;-75
2021/09/03 04:54:48;;;;;;;111.57;30.05;;;;;;;9.84;99.41;102461.25;4994277;28;20034;-74
2021/09/03 04:57:14;;;;;;;143.73;34.30;;;;;;;9.87;99.45;102461.06;4994666;28;20479;-74
2021/09/03 04:59:39;;;;;;;163.68;42.92;;;;;;;9.94;99.66;102459.72;4994918;28;20065;-74
2021/09/03 05:02:04;;;;;;;117.38;35.80;;;;;;;9.97;99.45;102459.53;4994115;28;20058;-74
2021/09/03 05:04:30;;;;;;;109.88;33.47;;;;;;;9.96;99.49;102463.13;4994816;28;20494;-74
2021/09/03 05:06:55;;;;;;;147.93;36.85;;;;;;;9.96;99.40;102459.63;4992909;28;20062;-74
2021/09/03 05:09:21;;;;;;;137.70;34.42;;;;;;;9.97;99.47;102458.66;4995028;28;20038;-73
2021/09/03 05:11:46;;;;;;;148.52;35.45;;;;;;;9.98;99.71;102457.72;4994779;28;20473;-74
2021/09/03 05:14:11;;;;;;;170.35;40.38;;;;;;;10.04;99.63;102460.84;4994651;28;20132;-74
2021/09/03 05:16:37;;;;;;;212.48;44.13;;;;;;;10.14;99.57;102461.13;4977316;28;20034;-74
2021/09/03 05:19:02;;;;;;;180.85;39.42;;;;;;;10.20;99.67;102463.41;4993990;28;20113;-74
2021/09/03 05:21:28;;;;;;;130.95;33.33;;;;;;;10.21;99.70;102457.13;4995201;28;20533;-73
2021/09/03 05:23:53;;;;;;;128.38;33.65;;;;;;;10.27;99.73;102460.34;4976554;28;20066;-74
2021/09/03 05:26:18;;;;;;;165.15;37.35;;;;;;;10.30;99.82;102460.16;4994622;28;20034;-73
2021/09/03 05:28:44;;;;;;;136.32;35.60;;;;;;;10.31;99.90;102456.56;4994394;28;20475;-76
2021/09/03 05:31:09;;;;;;;173.77;39.03;;;;;;;10.31;100.00;102462.72;4993618;28;20386;-73
2021/09/03 05:33:34;;;;;;;149.90;37.33;;;;;;;10.32;99.87;102464.44;4993976;28;20493;-73
2021/09/03 05:36:00;;;;;;;152.48;38.38;;;;;;;10.40;99.90;102469.28;4993532;28;20069;-74
2021/09/03 05:38:25;;;;;;;154.65;38.42;;;;;;;10.45;100.00;102476.97;4994159;28;20026;-74
2021/09/03 05:40:51;;;;;;;164.98;37.55;;;;;;;10.47;100.00;102477.75;4993487;28;20105;-74
2021/09/03 05:43:20;;;;;;;149.40;37.33;;;;;;;10.47;100.00;102477.75;4992597;28;20081;-74
2021/09/03 05:45:46;;;;;;;149.40;36.10;;;;;;;10.49;100.00;102471.34;4994140;28;20026;-73
2021/09/03 05:48:11;;;;;;;152.88;37.22;;;;;;;10.53;100.00;102470.22;4993704;28;20442;-73
2021/09/03 05:50:37;;;;;;;158.23;36.83;;;;;;;10.58;100.00;102470.78;4993647;28;20039;-74
2021/09/03 05:53:02;;;;;;;165.57;40.15;;;;;;;10.68;100.00;102471.03;4993262;28;20077;-74
2021/09/03 05:55:27;;;;;;;160.27;39.45;;;;;;;10.73;100.00;102468.94;4993778;28;20034;-74
2021/09/03 05:57:54;;;;;;;160.63;37.22;;;;;;;10.77;100.00;102469.56;4992863;28;20095;-76
2021/09/03 06:00:21;;;;;;;189.25;44.35;;;;;;;10.85;100.00;102469.94;4993680;28;20041;-73
2021/09/03 06:02:46;;;;;;;157.02;42.38;;;;;;;10.91;100.00;102472.19;4993758;28;20057;-74
2021/09/03 06:05:12;;;;;;;179.48;43.92;;;;;;;10.99;100.00;102470.81;4992982;28;20042;-73
2021/09/03 06:07:37;;;;;;;177.13;42.22;;;;;;;11.06;100.00;102474.78;4993521;28;20387;-74
2021/09/03 06:10:04;;;;;;;161.10;40.67;;;;;;;11.09;100.00;102463.91;4992781;28;20037;-74
2021/09/03 06:12:30;;;;;;;153.55;40.22;;;;;;;11.14;100.00;102467.13;4993169;28;20026;-74
2021/09/03 06:14:55;;;;;;;155.23;40.15;;;;;;;11.20;100.00;102461.41;4992567;28;20049;-74
2021/09/03 06:17:21;;;;;;;147.30;37.47;;;;;;;11.27;100.00;102464.47;4976311;28;20467;-74
2021/09/03 06:19:46;;;;;;;144.40;38.75;;;;;;;11.35;100.00;102459.50;4992976;28;20046;-74
2021/09/03 06:22:12;;;;;;;141.57;37.60;;;;;;;11.41;100.00;102464.41;4992498;28;20042;-74
2021/09/03 06:24:37;;;;;;;144.93;39.78;;;;;;;11.46;100.00;102461.44;4993066;28;20065;-73
2021/09/03 06:27:11;;;;;;;128.63;35.53;;;;;;;11.54;100.00;102458.22;4992543;28;20034;-74
2021/09/03 06:32:14;;;;;;;113.97;36.10;;;;;;;11.69;100.00;102470.50;4992660;28;20399;-74
2021/09/03 06:34:42;;;;;;;107.40;33.10;;;;;;;11.77;100.00;102469.97;4993293;28;20026;-74
2021/09/03 06:37:08;;;;;;;108.40;34.72;;;;;;;11.85;100.00;102464.94;4992613;28;20031;-74
2021/09/03 06:39:34;;;;;;;98.75;33.08;;;;;;;11.94;100.00;102474.16;4993190;28;20060;-74
2021/09/03 06:42:01;;;;;;;90.90;31.77;;;;;;;12.02;100.00;102470.94;4974902;28;20479;-74
2021/09/03 06:44:26;;;;;;;90.53;31.38;;;;;;;12.06;100.00;102467.97;4992854;28;20434;-73
2021/09/03 06:46:52;;;;;;;67.95;27.52;;;;;;;12.13;100.00;102469.22;4993221;28;20034;-74
2021/09/03 06:49:17;;;;;;;70.72;27.65;;;;;;;12.19;100.00;102465.25;4992499;28;20035;-74
2021/09/03 06:51:43;;;;;;;67.35;28.23;;;;;;;12.25;100.00;102466.63;4993149;28;20113;-74
2021/09/03 06:54:08;;;;;;;62.15;26.63;;;;;;;12.31;99.86;102469.69;4992556;28;20034;-75
2021/09/03 06:56:33;;;;;;;61.63;26.48;;;;;;;12.40;98.91;102472.69;4992844;28;20034;-74
2021/09/03 06:59:00;;;;;;;56.67;24.92;;;;;;;12.50;98.14;102469.22;4992366;28;20034;-75
2021/09/03 07:01:26;;;;;;;55.60;24.52;;;;;;;12.60;98.12;102466.75;4992696;28;20479;-74
2021/09/03 07:03:51;;;;;;;49.20;22.85;;;;;;;12.71;96.91;102460.59;4992901;28;20106;-73
2021/09/03 07:06:16;;;;;;;49.45;23.23;;;;;;;12.76;96.44;102461.09;4991398;28;20337;-74
2021/09/03 07:08:42;;;;;;;46.60;21.95;;;;;;;12.84;95.57;102465.91;4992951;28;20066;-74
2021/09/03 07:11:07;;;;;;;47.10;22.08;;;;;;;12.92;95.12;102458.16;4992227;28;20033;-74
2021/09/03 07:13:34;;;;;;;42.10;21.42;;;;;;;12.99;93.91;102456.72;4992573;28;20118;-74
2021/09/03 07:16:00;;;;;;;44.10;21.27;;;;;;;13.07;93.73;102461.50;4992041;28;20041;-75
2021/09/03 07:18:25;;;;;;;40.25;21.17;;;;;;;13.16;92.85;102460.78;4992568;28;20109;-74
2021/09/03 07:20:51;;;;;;;37.85;19.65;;;;;;;13.27;92.13;102459.13;4992404;28;20035;-73
2021/09/03 07:23:16;;;;;;;39.45;20.05;;;;;;;13.38;92.23;102456.53;4992112;28;20498;-74
2021/09/03 07:25:42;;;;;;;45.28;21.33;;;;;;;13.47;92.58;102457.63;4992353;28;20042;-74
2021/09/03 07:28:07;;;;;;;42.50;21.30;;;;;;;13.58;92.09;102453.16;4992092;28;20033;-74
2021/09/03 07:30:33;;;;;;;36.90;19.95;;;;;;;13.71;91.73;102457.53;4993671;28;20035;-74
2021/09/03 07:32:58;;;;;;;41.05;19.63;;;;;;;13.85;91.25;102465.34;4996165;28;20042;-74
2021/09/03 07:35:23;;;;;;;39.80;20.02;;;;;;;13.95;90.07;102457.44;4995571;28;20041;-74
2021/09/03 07:37:51;;;;;;;35.42;19.20;;;;;;;14.05;90.26;102455.72;4996302;28;20072;-74
2021/09/03 07:40:16;;;;;;;39.17;18.35;;;;;;;14.10;89.50;102461.53;4995591;28;20113;-73
2021/09/03 07:42:42;;;;;;;35.88;18.40;;;;;;;14.20;87.79;102463.50;4996208;28;20522;-73
2021/09/03 07:45:07;;;;;;;34.55;19.08;;;;;;;14.31;88.19;102460.81;4995386;28;20035;-74
2021/09/03 07:47:33;;;;;;;32.67;18.00;;;;;;;14.44;88.20;102455.31;4996243;28;20053;-74
2021/09/03 07:49:58;;;;;;;29.98;17.35;;;;;;;14.61;87.25;102457.50;4995866;28;20041;-74
2021/09/03 07:52:23;;;;;;;34.55;17.05;;;;;;;14.74;85.69;102446.59;4995350;28;20459;-73
2021/09/03 07:54:49;;;;;;;33.70;17.60;;;;;;;14.87;85.25;102442.88;4995681;28;20372;-73
2021/09/03 07:57:14;;;;;;;37.67;17.25;;;;;;;15.01;84.89;102447.13;4995434;28;20046;-73
2021/09/03 07:59:40;;;;;;;34.40;17.55;;;;;;;15.14;85.12;102445.94;4995682;28;20437;-73
2021/09/03 08:02:05;;;;;;;35.95;17.45;;;;;;;15.25;84.34;102442.34;4995179;28;20053;-74
2021/09/03 08:04:31;;;;;;;32.92;17.10;;;;;;;15.43;83.66;102445.28;4995509;28;20034;-73
2021/09/03 08:06:57;;;;;;;31.83;16.98;;;;;;;15.90;82.02;102444.84;4995836;28;20038;-73
2021/09/03 08:09:23;;;;;;;32.17;17.00;;;;;;;16.39;79.45;102443.16;4994788;28;20038;-73
2021/09/03 08:11:49;;;;;;;36.00;16.80;;;;;;;16.99;77.34;102434.16;4995747;28;20117;-73
2021/09/03 08:14:15;;;;;;;26.13;15.25;;;;;;;17.60;74.58;102438.31;4994871;28;20037;-74
2021/09/03 08:16:40;;;;;;;26.85;15.65;;;;;;;18.27;72.78;102445.38;4995612;28;20030;-73
2021/09/03 08:19:06;;;;;;;31.08;15.10;;;;;;;18.76;70.82;102439.66;4995651;28;20161;-73
2021/09/03 08:21:32;;;;;;;27.30;15.70;;;;;;;19.01;70.00;102441.59;4995249;28;20050;-73
2021/09/03 08:23:57;;;;;;;26.23;14.52;;;;;;;19.25;67.79;102441.94;4995611;28;20455;-73
2021/09/03 08:26:23;;;;;;;25.73;13.93;;;;;;;19.14;67.92;102434.97;4994845;28;20034;-73
2021/09/03 08:28:48;;;;;;;28.65;13.57;;;;;;;19.25;67.83;102436.56;4995484;28;20034;-73
2021/09/03 08:31:14;;;;;;;26.35;14.55;;;;;;;19.25;67.14;102433.84;4994830;28;20042;-73
2021/09/03 08:33:39;;;;;;;25.08;14.25;;;;;;;18.91;68.38;102435.44;4995115;28;20040;-73
2021/09/03 08:36:05;;;;;;;27.92;13.30;;;;;;;18.84;68.66;102432.50;4977646;28;20475;-73
2021/09/03 08:38:30;;;;;;;25.73;14.70;;;;;;;18.83;67.49;102432.66;4994582;28;20462;-73
2021/09/03 08:40:57;;;;;;;24.20;12.70;;;;;;;18.98;69.71;102435.69;4995001;28;20132;-72
2021/09/03 08:43:23;;;;;;;25.48;13.68;;;;;;;19.02;68.30;102434.38;4994441;28;20035;-73
2021/09/03 08:45:49;;;;;;;21.75;12.55;;;;;;;19.16;67.51;102438.34;4995086;28;20038;-73
2021/09/03 08:48:19;;;;;;;23.17;12.70;;;;;;;19.52;68.20;102435.53;4994070;28;20039;-74
2021/09/03 08:50:47;;;;;;;24.52;13.00;;;;;;;19.84;66.14;102443.00;4995118;28;20034;-73
2021/09/03 08:53:17;;;;;;;21.30;12.98;;;;;;;20.14;63.98;102443.47;4994020;28;20038;-74
2021/09/03 08:55:44;;;;;;;18.50;11.55;;;;;;;20.73;61.91;102435.31;4994873;28;20034;-73
2021/09/03 08:58:10;;;;;;;21.65;11.65;;;;;;;21.54;58.70;102435.47;4994845;28;20037;-73
2021/09/03 09:00:35;;;;;;;24.30;12.00;;;;;;;22.56;57.00;102440.09;4994085;28;20031;-73
2021/09/03 09:03:15;;;;;;;27.92;11.20;;;;;;;23.52;53.72;102436.91;4994278;28;20583;-72
2021/09/03 09:05:43;;;;;;;19.42;10.70;;;;;;;24.27;50.46;102434.97;4994735;28;20113;-73
2021/09/03 09:08:09;;;;;;;23.08;12.10;;;;;;;24.46;49.27;102439.78;4994287;28;20449;-72
2021/09/03 09:10:35;;;;;;;20.88;10.25;;;;;;;25.19;47.96;102432.50;4994055;28;20062;-72
2021/09/03 09:13:00;;;;;;;20.73;10.80;;;;;;;25.36;46.80;102435.78;4994400;28;20050;-72
2021/09/03 09:15:25;;;;;;;18.00;10.02;;;;;;;26.07;46.40;102437.47;4994091;28;20382;-72
2021/09/03 09:17:52;;;;;;;19.05;11.20;;;;;;;26.62;43.90;102435.47;4994481;28;20038;-72
2021/09/03 09:20:17;;;;;;;16.77;10.18;;;;;;;26.87;43.64;102438.47;4976179;28;20136;-73
2021/09/03 09:22:55;;;;;;;18.58;10.07;;;;;;;26.41;43.30;102444.69;4994402;28;20474;-72
2021/09/03 09:25:27;;;;;;;18.88;10.40;;;;;;;26.17;44.01;102446.06;4993745;28;20022;-72
2021/09/03 09:27:54;;;;;;;21.35;9.63;;;;;;;26.67;43.63;102443.91;4994390;28;20030;-74
2021/09/03 09:30:25;;;;;;;17.02;10.20;;;;;;;26.73;41.97;102431.31;4993789;28;20077;-73
2021/09/03 09:33:10;;;;;;;;;;;;;;;26.90;42.82;102435.31;4994652;28;20030;-72
2021/09/03 09:35:41;;;;;;;20.65;9.95;;;;;;;26.95;43.16;102440.16;4993407;28;19914;-72
2021/09/03 09:38:09;;;;;;;16.92;10.25;;;;;;;26.84;41.62;102443.50;4994270;28;20042;-73
2021/09/03 09:40:47;;;;;;;16.60;9.90;;;;;;;26.76;41.28;102439.09;4993696;28;20061;-74
2021/09/03 09:43:25;;;;;;;17.85;10.20;;;;;;;27.41;41.68;102433.00;4994122;28;20022;-73
2021/09/03 09:46:15;;;;;;;23.02;9.77;;;;;;;27.81;40.86;102432.84;4993936;28;20042;-74
2021/09/03 09:48:50;;;;;;;23.02;10.13;;;;;;;28.11;38.75;102430.44;4993157;28;20046;-72
2021/09/03 09:51:42;;;;;;;18.27;10.07;;;;;;;27.76;41.18;102433.50;4993811;28;20027;-74
2021/09/03 09:54:22;;;;;;;18.17;10.10;;;;;;;27.77;39.74;102423.41;4993004;28;20097;-73
2021/09/03 09:56:53;;;;;;;15.93;9.30;;;;;;;27.20;41.20;102429.41;4993845;28;20038;-73
2021/09/03 09:59:20;;;;;;;19.52;9.52;;;;;;;27.36;41.96;102430.88;4993584;28;20447;-72
2021/09/03 10:01:48;;;;;;;15.32;9.70;;;;;;;27.48;42.87;102420.13;4993753;28;20168;-73
2021/09/03 10:04:19;;;;;;;22.30;10.38;;;;;;;28.00;41.26;102420.19;4993683;28;20029;-73
2021/09/03 10:06:47;;;;;;;17.52;9.45;;;;;;;28.01;40.24;102413.66;4993309;28;20443;-73
2021/09/03 10:09:15;;;;;;;18.50;10.07;;;;;;;27.76;40.14;102422.56;4993512;28;20489;-74
2021/09/03 10:11:56;;;;;;;17.33;9.77;;;;;;;27.96;40.51;102418.91;4992866;28;20352;-72
2021/09/03 10:14:27;;;;;;;20.77;10.90;;;;;;;27.46;39.88;102418.69;4993515;28;20088;-76
2021/09/03 10:16:54;;;;;;;17.95;10.90;;;;;;;27.67;41.02;102418.41;4993416;28;20030;-74
2021/09/03 10:19:25;;;;;;;20.65;10.98;;;;;;;27.64;42.19;102407.06;4993407;28;20076;-74
2021/09/03 10:21:55;;;;;;;17.83;9.82;;;;;;;27.85;39.49;102403.19;4993502;28;20030;-74
2021/09/03 10:24:25;;;;;;;23.02;10.57;;;;;;;28.24;40.09;102393.13;4993298;28;20085;-74
2021/09/03 10:26:54;;;;;;;17.02;10.05;;;;;;;27.95;39.98;102400.84;4993355;28;20113;-74
2021/09/03 10:29:22;;;;;;;16.10;10.43;;;;;;;28.07;40.86;102401.84;4993197;28;20077;-73
2021/09/03 10:32:07;;;;;;;15.65;10.60;;;;;;;28.30;40.88;102398.53;4992330;28;20057;-74
2021/09/03 10:34:50;;;;;;;20.13;11.15;;;;;;;28.45;39.73;102397.38;4985276;28;20129;-74
2021/09/03 10:37:15;;;;;;;18.17;10.32;;;;;;;28.24;39.25;102401.31;4993528;28;20038;-72
2021/09/03 10:39:45;;;;;;;21.73;11.18;;;;;;;27.57;38.96;102396.13;4992528;28;20033;-73
2021/09/03 10:42:11;;;;;;;18.92;10.48;;;;;;;27.52;41.27;102401.44;4993244;28;20158;-73
2021/09/03 10:45:16;;;;;;;17.80;9.60;;;;;;;27.73;40.96;102392.09;4992538;28;20471;-73
2021/09/03 10:47:50;;;;;;;20.20;10.32;;;;;;;28.50;39.22;102386.63;4992380;28;20042;-73
2021/09/03 10:50:42;;;;;;;22.75;11.13;;;;;;;28.09;39.43;102383.31;4993248;28;20092;-72
2021/09/03 10:53:07;;;;;;;17.88;9.98;;;;;;;28.39;38.75;102371.75;4993055;28;20128;-73
2021/09/03 10:56:03;;;;;;;16.42;9.10;;;;;;;28.96;38.91;102371.72;4992405;28;20125;-73
2021/09/03 10:58:51;;;;;;;19.92;10.95;;;;;;;28.64;39.92;102370.97;4992464;28;20034;-73
2021/09/03 11:01:26;;;;;;;20.88;11.00;;;;;;;28.56;39.45;102368.44;4975550;28;20477;-73
2021/09/03 11:03:52;;;;;;;16.35;10.63;;;;;;;28.83;38.37;102369.94;4992363;28;20034;-71
2021/09/03 11:06:27;;;;;;;19.63;10.93;;;;;;;28.74;37.82;102367.69;4995658;28;20061;-73
2021/09/03 11:08:54;;;;;;;17.30;10.18;;;;;;;28.80;38.81;102362.19;4996259;28;20169;-73
2021/09/03 11:11:24;;;;;;;19.23;10.73;;;;;;;28.62;39.91;102356.66;4996893;28;20088;-73